Harvard, IL (60033)

9:12 PM CDT on September 04, 2015 (GMT -0500)
KILHARVA4 | | Change Station
CLOSE
Current Station
Personal Weather Station
Location: Harvard, IL
Elevation: 970 ft
Nearby Weather Stations

Elev 970 ft 42.42 °N, 88.61 °W | Updated 1 minute ago

Partly Cloudy
Partly Cloudy
68.5 °F
Feels Like 68.5 °F
N
1.0
Wind Variable Wind from SE
Gusts 1.0 mph

Today
High -- | Low -- °F
--% Chance of Precip.
Yesterday
High -- | Low -- °F
Precip. -- in
6:22 AM 7:23 PM
Waning Gibbous, 53% visible
Pressure 30.07 in
Visibility 10.0 miles
Clouds Clear
Dew Point 66 °F
Humidity 93%
Rainfall 0.00 in
Snow Depth Not available.
UV 0 out of 12
Pollen 9.60 out of 12
Air Quality Not available.
Flu Activity Not available.
METAR KBUU 050155Z AUTO 12004KT 10SM CLR 19/18 A3007 RMK AO2 T01880176
Pressure 30.07 in
Visibility 10.0 miles
Clouds Clear
Dew Point 66 °F
Humidity 93%
Rainfall 0.00 in
Snow Depth Not available.
UV 0 out of 12
Pollen 9.60 out of 12
Air Quality Not available.
Flu Activity Not available.
METAR KBUU 050155Z AUTO 12004KT 10SM CLR 19/18 A3007 RMK AO2 T01880176

10-Day Weather Forecast

×

Almanac

Astronomy

Sep. 04, 2015 Rise Set
Actual Time
Civil Twilight
Nautical Twilight
Astronomical Twilight
Moon
Length of Visible Light
Length of Day
Tomorrow will be .
, % of the Moon is Illuminated

Today's Extremes

State Highs State Lows

Community

WunderPhotos

Upload Photos

1,852,384 photos uploaded!

WunderBlogs® & News

Nearby

Air Quality

  Air Quality AQ Index Pollutant
Not available.

Snow Depth

Station Depth Elevation

Earthquake Activity

City Distance Mag. Time & Date
Minimum magnitude displayed is 2.5.

Coastal Water Temperatures

Place Temperature

Stations

Nearby Weather Stations

Station Location Temp. Windchill Dew Point Humidity Wind Precip. Elev Updated Type